Time,TemperatureF,DewpointF,PressureIn,WindDirection,WindDirectionDegrees,WindSpeedMPH,WindSpeedGustMPH,Humidity,HourlyPrecipIn,Conditions,Clouds,dailyrainin,SoftwareType,DateUTC
2013-08-07 00:01:00,70.0,66.0,30.08,North,0,0.0,-999.0,88,-99.99,,,-99.99,,2013-08-07 04:01:00,
2013-08-07 00:22:00,72.0,66.0,30.09,SSW,200,5.0,-999.0,83,-99.99,,,-99.99,,2013-08-07 04:22:00,
2013-08-07 00:33:00,72.0,66.0,30.08,South,190,5.0,-999.0,83,-99.99,,,-99.99,,2013-08-07 04:33:00,
2013-08-07 00:43:00,72.0,66.0,30.08,South,190,5.0,-999.0,83,-99.99,,,-99.99,,2013-08-07 04:43:00,
2013-08-07 00:52:00,70.0,66.0,30.08,North,0,0.0,-999.0,88,-99.99,,,-99.99,,2013-08-07 04:52:00,
2013-08-07 01:02:00,70.0,66.0,30.08,North,0,0.0,-999.0,88,-99.99,,,-99.99,,2013-08-07 05:02:00,
2013-08-07 01:22:00,70.0,66.0,30.08,North,0,0.0,-999.0,88,-99.99,,,-99.99,,2013-08-07 05:22:00,
2013-08-07 01:32:00,72.0,66.0,30.08,North,0,0.0,-999.0,83,-99.99,,,-99.99,,2013-08-07 05:32:00,
2013-08-07 01:43:00,72.0,66.0,30.08,North,0,0.0,-999.0,83,-99.99,,,-99.99,,2013-08-07 05:43:00,
2013-08-07 02:02:00,72.0,66.0,30.07,North,0,0.0,-999.0,83,-99.99,,,-99.99,,2013-08-07 06:02:00,
2013-08-07 02:11:00,72.0,66.0,30.07,North,0,0.0,-999.0,83,-99.99,,,-99.99,,2013-08-07 06:11:00,
2013-08-07 02:22:00,72.0,66.0,30.07,North,0,0.0,-999.0,83,-99.99,,,-99.99,,2013-08-07 06:22:00,
2013-08-07 02:32:00,70.0,66.0,30.07,North,0,0.0,-999.0,88,-99.99,,,-99.99,,2013-08-07 06:32:00,
2013-08-07 02:43:00,70.0,66.0,30.07,North,0,0.0,-999.0,88,-99.99,,,-99.99,,2013-08-07 06:43:00,
2013-08-07 03:01:00,72.0,66.0,30.08,North,0,0.0,-999.0,83,-99.99,,,-99.99,,2013-08-07 07:01:00,
2013-08-07 03:12:00,72.0,66.0,30.07,North,0,0.0,-999.0,83,-99.99,,,-99.99,,2013-08-07 07:12:00,
2013-08-07 03:22:00,72.0,66.0,30.07,North,0,0.0,-999.0,83,-99.99,,,-99.99,,2013-08-07 07:22:00,
2013-08-07 03:33:00,72.0,66.0,30.07,North,0,0.0,-999.0,83,-99.99,,,-99.99,,2013-08-07 07:33:00,
2013-08-07 03:43:00,72.0,66.0,30.07,SSE,150,6.0,-999.0,83,-99.99,,,-99.99,,2013-08-07 07:43:00,
2013-08-07 03:52:00,72.0,66.0,30.07,North,0,0.0,-999.0,83,-99.99,,,-99.99,,2013-08-07 07:52:00,
2013-08-07 04:02:00,72.0,66.0,30.07,North,0,0.0,-999.0,83,-99.99,,,-99.99,,2013-08-07 08:02:00,
2013-08-07 04:22:00,72.0,66.0,30.07,North,0,0.0,-999.0,83,-99.99,,,-99.99,,2013-08-07 08:22:00,
2013-08-07 04:44:00,72.0,66.0,30.07,North,0,0.0,-999.0,83,-99.99,,,-99.99,,2013-08-07 08:44:00,
2013-08-07 05:02:00,72.0,66.0,30.07,North,0,0.0,-999.0,83,-99.99,,,-99.99,,2013-08-07 09:02:00,
2013-08-07 05:12:00,72.0,66.0,30.07,SSE,160,5.0,-999.0,83,-99.99,,,-99.99,,2013-08-07 09:12:00,
2013-08-07 05:22:00,72.0,66.0,30.07,SSE,160,5.0,-999.0,83,-99.99,,,-99.99,,2013-08-07 09:22:00,
2013-08-07 05:32:00,72.0,66.0,30.07,SSE,160,5.0,-999.0,83,-99.99,,,-99.99,,2013-08-07 09:32:00,
2013-08-07 05:43:00,72.0,68.0,30.07,North,0,0.0,-999.0,88,-99.99,,,-99.99,,2013-08-07 09:43:00,
2013-08-07 05:54:00,72.0,68.0,30.07,South,170,5.0,-999.0,88,-99.99,,,-99.99,,2013-08-07 09:54:00,
2013-08-07 06:01:00,72.0,68.0,30.07,South,170,5.0,-999.0,88,-99.99,,,-99.99,,2013-08-07 10:01:00,
2013-08-07 06:22:00,72.0,68.0,30.07,North,0,0.0,-999.0,88,-99.99,,,-99.99,,2013-08-07 10:22:00,
2013-08-07 06:32:00,72.0,68.0,30.07,North,0,0.0,-999.0,88,-99.99,,,-99.99,,2013-08-07 10:32:00,
2013-08-07 06:43:00,72.0,68.0,30.07,North,0,0.0,-999.0,88,-99.99,,,-99.99,,2013-08-07 10:43:00,
2013-08-07 06:52:00,72.0,68.0,30.07,North,0,0.0,-999.0,88,-99.99,,,-99.99,,2013-08-07 10:52:00,
2013-08-07 07:02:00,72.0,68.0,30.07,North,0,0.0,-999.0,88,-99.99,,,-99.99,,2013-08-07 11:02:00,
2013-08-07 07:22:00,72.0,68.0,30.07,North,0,0.0,-999.0,88,-99.99,,,-99.99,,2013-08-07 11:22:00,
2013-08-07 07:32:00,72.0,68.0,30.07,North,0,0.0,-999.0,88,-99.99,,,-99.99,,2013-08-07 11:32:00,
2013-08-07 07:43:00,72.0,68.0,30.07,North,0,0.0,-999.0,88,-99.99,,,-99.99,,2013-08-07 11:43:00,
2013-08-07 08:02:00,72.0,68.0,30.08,North,0,0.0,-999.0,88,-99.99,,,-99.99,,2013-08-07 12:02:00,
2013-08-07 08:11:00,72.0,68.0,30.08,South,170,5.0,-999.0,88,-99.99,,,-99.99,,2013-08-07 12:11:00,
2013-08-07 08:22:00,72.0,68.0,30.08,South,170,5.0,-999.0,88,-99.99,,,-99.99,,2013-08-07 12:22:00,
2013-08-07 08:43:00,73.0,70.0,30.07,South,170,5.0,-999.0,88,-99.99,,,-99.99,,2013-08-07 12:43:00,
2013-08-07 09:02:00,73.0,68.0,30.07,SE,140,6.0,-999.0,83,-99.99,,,-99.99,,2013-08-07 13:02:00,
2013-08-07 09:12:00,73.0,68.0,30.07,SSE,150,8.0,-999.0,83,-99.99,,,-99.99,,2013-08-07 13:12:00,
2013-08-07 09:22:00,73.0,68.0,30.07,SSE,150,8.0,-999.0,83,-99.99,,,-99.99,,2013-08-07 13:22:00,
2013-08-07 09:32:00,73.0,68.0,30.07,North,0,0.0,-999.0,83,-99.99,,,-99.99,,2013-08-07 13:32:00,
2013-08-07 09:44:00,73.0,68.0,30.07,North,0,0.0,-999.0,83,-99.99,,,-99.99,,2013-08-07 13:44:00,
2013-08-07 10:02:00,73.0,70.0,30.07,SW,220,6.0,-999.0,88,-99.99,,,-99.99,,2013-08-07 14:02:00,
2013-08-07 10:22:00,73.0,68.0,30.07,SW,220,7.0,-999.0,83,-99.99,,,-99.99,,2013-08-07 14:22:00,
2013-08-07 10:33:00,73.0,66.0,30.08,SSW,210,5.0,-999.0,78,-99.99,,,-99.99,,2013-08-07 14:33:00,
2013-08-07 10:43:00,73.0,66.0,30.08,SSW,210,5.0,-999.0,78,-99.99,,,-99.99,,2013-08-07 14:43:00,
2013-08-07 11:02:00,73.0,68.0,30.08,South,180,6.0,-999.0,83,-99.99,,,-99.99,,2013-08-07 15:02:00,
2013-08-07 11:22:00,73.0,66.0,30.08,South,180,6.0,-999.0,78,-99.99,,,-99.99,,2013-08-07 15:22:00,
2013-08-07 11:43:00,73.0,66.0,30.08,South,190,6.0,-999.0,78,-99.99,,,-99.99,,2013-08-07 15:43:00,
2013-08-07 11:53:00,75.0,68.0,30.08,North,0,0.0,-999.0,78,-99.99,,,-99.99,,2013-08-07 15:53:00,
2013-08-07 12:02:00,75.0,68.0,30.08,North,0,0.0,-999.0,78,-99.99,,,-99.99,,2013-08-07 16:02:00,
2013-08-07 12:22:00,75.0,68.0,30.07,South,180,7.0,-999.0,78,-99.99,,,-99.99,,2013-08-07 16:22:00,
2013-08-07 12:33:00,75.0,68.0,30.07,South,180,7.0,-999.0,78,-99.99,,,-99.99,,2013-08-07 16:33:00,
2013-08-07 12:43:00,75.0,70.0,30.08,North,0,0.0,-999.0,83,-99.99,,,-99.99,,2013-08-07 16:43:00,
2013-08-07 13:02:00,75.0,70.0,30.08,North,0,0.0,-999.0,83,-99.99,,,-99.99,,2013-08-07 17:02:00,
2013-08-07 13:11:00,77.0,70.0,30.07,SW,220,7.0,-999.0,78,-99.99,,,-99.99,,2013-08-07 17:11:00,
2013-08-07 13:23:00,77.0,70.0,30.07,SW,220,7.0,-999.0,78,-99.99,,,-99.99,,2013-08-07 17:23:00,
2013-08-07 13:33:00,79.0,70.0,30.07,SSE,150,7.0,-999.0,73,-99.99,,,-99.99,,2013-08-07 17:33:00,
2013-08-07 13:43:00,79.0,70.0,30.07,SSE,150,7.0,-999.0,73,-99.99,,,-99.99,,2013-08-07 17:43:00,
2013-08-07 13:52:00,79.0,70.0,30.07,South,190,7.0,-999.0,73,-99.99,,,-99.99,,2013-08-07 17:52:00,
2013-08-07 14:02:00,79.0,70.0,30.07,South,190,7.0,-999.0,73,-99.99,,,-99.99,,2013-08-07 18:02:00,
2013-08-07 14:22:00,79.0,72.0,30.05,SSE,150,6.0,-999.0,78,-99.99,,,-99.99,,2013-08-07 18:22:00,
2013-08-07 14:32:00,79.0,72.0,30.05,SSE,150,6.0,-999.0,78,-99.99,,,-99.99,,2013-08-07 18:32:00,
2013-08-07 14:43:00,79.0,70.0,30.05,SE,140,8.0,-999.0,73,-99.99,,,-99.99,,2013-08-07 18:43:00,
2013-08-07 14:52:00,81.0,72.0,30.05,North,0,0.0,-999.0,74,-99.99,,,-99.99,,2013-08-07 18:52:00,
2013-08-07 15:01:00,81.0,72.0,30.05,North,0,0.0,-999.0,74,-99.99,,,-99.99,,2013-08-07 19:01:00,
2013-08-07 15:22:00,81.0,72.0,30.05,SE,140,6.0,-999.0,74,-99.99,,,-99.99,,2013-08-07 19:22:00,
2013-08-07 15:44:00,81.0,72.0,30.04,South,180,7.0,-999.0,74,-99.99,,,-99.99,,2013-08-07 19:44:00,
2013-08-07 15:52:00,81.0,72.0,30.04,South,170,7.0,-999.0,74,-99.99,,,-99.99,,2013-08-07 19:52:00,
2013-08-07 16:02:00,81.0,72.0,30.04,South,170,7.0,-999.0,74,-99.99,,,-99.99,,2013-08-07 20:02:00,
2013-08-07 16:22:00,81.0,72.0,30.03,SSE,150,8.0,-999.0,74,-99.99,,,-99.99,,2013-08-07 20:22:00,
2013-08-07 16:33:00,81.0,72.0,30.03,SSE,150,8.0,-999.0,74,-99.99,,,-99.99,,2013-08-07 20:33:00,
2013-08-07 16:43:00,81.0,72.0,30.03,South,170,7.0,-999.0,74,-99.99,,,-99.99,,2013-08-07 20:43:00,
2013-08-07 17:02:00,81.0,72.0,30.02,SSE,150,10.0,16.0,74,-99.99,,,-99.99,,2013-08-07 21:02:00,
2013-08-07 17:11:00,81.0,70.0,30.02,South,180,9.0,-999.0,69,-99.99,,,-99.99,,2013-08-07 21:11:00,
2013-08-07 17:22:00,81.0,70.0,30.02,South,180,9.0,-999.0,69,-99.99,,,-99.99,,2013-08-07 21:22:00,
2013-08-07 17:32:00,81.0,70.0,30.02,South,190,12.0,17.0,69,-99.99,,,-99.99,,2013-08-07 21:32:00,
2013-08-07 17:43:00,81.0,70.0,30.02,South,190,12.0,17.0,69,-99.99,,,-99.99,,2013-08-07 21:43:00,
2013-08-07 17:52:00,81.0,70.0,30.02,South,190,12.0,17.0,69,-99.99,,,-99.99,,2013-08-07 21:52:00,
2013-08-07 18:01:00,81.0,70.0,30.02,South,190,10.0,-999.0,69,-99.99,,,-99.99,,2013-08-07 22:01:00,
2013-08-07 18:22:00,81.0,70.0,30.03,South,190,8.0,-999.0,69,-99.99,,,-99.99,,2013-08-07 22:22:00,
2013-08-07 18:32:00,81.0,70.0,30.03,South,190,8.0,-999.0,69,-99.99,,,-99.99,,2013-08-07 22:32:00,
2013-08-07 18:43:00,81.0,70.0,30.02,South,170,7.0,-999.0,69,-99.99,,,-99.99,,2013-08-07 22:43:00,
2013-08-07 19:02:00,81.0,70.0,30.01,North,0,0.0,-999.0,69,-99.99,,,-99.99,,2013-08-07 23:02:00,
2013-08-07 19:11:00,79.0,70.0,30.02,South,180,7.0,-999.0,73,-99.99,,,-99.99,,2013-08-07 23:11:00,
2013-08-07 19:22:00,79.0,70.0,30.02,South,180,7.0,-999.0,73,-99.99,,,-99.99,,2013-08-07 23:22:00,
2013-08-07 19:32:00,79.0,70.0,30.01,South,170,8.0,-999.0,73,-99.99,,,-99.99,,2013-08-07 23:32:00,
2013-08-07 19:43:00,79.0,70.0,30.01,South,170,8.0,-999.0,73,-99.99,,,-99.99,,2013-08-07 23:43:00,
2013-08-07 19:52:00,79.0,72.0,30.02,South,180,6.0,-999.0,78,-99.99,,,-99.99,,2013-08-07 23:52:00,
2013-08-07 20:01:00,79.0,72.0,30.02,South,180,6.0,-999.0,78,-99.99,,,-99.99,,2013-08-08 00:01:00,
2013-08-07 20:22:00,79.0,72.0,30.02,SSW,210,8.0,-999.0,78,-99.99,,,-99.99,,2013-08-08 00:22:00,
2013-08-07 20:32:00,79.0,72.0,30.02,SSW,210,8.0,-999.0,78,-99.99,,,-99.99,,2013-08-08 00:32:00,
2013-08-07 20:43:00,79.0,72.0,30.02,South,180,8.0,-999.0,78,-99.99,,,-99.99,,2013-08-08 00:43:00,
2013-08-07 20:52:00,79.0,72.0,30.02,South,190,8.0,-999.0,78,-99.99,,,-99.99,,2013-08-08 00:52:00,
2013-08-07 21:02:00,79.0,72.0,30.02,South,190,8.0,-999.0,78,-99.99,,,-99.99,,2013-08-08 01:02:00,
2013-08-07 21:22:00,79.0,72.0,30.02,South,180,8.0,-999.0,78,-99.99,,,-99.99,,2013-08-08 01:22:00,
2013-08-07 21:32:00,79.0,72.0,30.03,South,180,7.0,-999.0,78,-99.99,,,-99.99,,2013-08-08 01:32:00,
2013-08-07 21:43:00,79.0,72.0,30.03,South,180,7.0,-999.0,78,-99.99,,,-99.99,,2013-08-08 01:43:00,
2013-08-07 22:02:00,79.0,72.0,30.04,South,180,8.0,-999.0,78,-99.99,,,-99.99,,2013-08-08 02:02:00,
2013-08-07 22:22:00,79.0,72.0,30.04,North,0,0.0,-999.0,78,-99.99,,,-99.99,,2013-08-08 02:22:00,
2013-08-07 22:43:00,79.0,72.0,30.04,SSW,200,6.0,-999.0,78,-99.99,,,-99.99,,2013-08-08 02:43:00,
2013-08-07 22:52:00,79.0,72.0,30.03,SSW,200,5.0,-999.0,78,-99.99,,,-99.99,,2013-08-08 02:52:00,
2013-08-07 23:02:00,79.0,72.0,30.03,SSW,200,5.0,-999.0,78,-99.99,,,-99.99,,2013-08-08 03:02:00,
2013-08-07 23:22:00,77.0,70.0,30.04,North,0,0.0,-999.0,78,-99.99,,,-99.99,,2013-08-08 03:22:00,
2013-08-07 23:43:00,77.0,70.0,30.03,South,190,6.0,-999.0,78,-99.99,,,-99.99,,2013-08-08 03:43:00,